Time;durP1;ratioP1;P1;durP2;ratioP2;P2;SDS_P1;SDS_P2;PMS_P1;PMS_P2;Temp;Humidity;BMP_temperature;BMP_pressure;BME280_temperature;BME280_humidity;BME280_pressure;Samples;Min_cycle;Max_cycle;Signal;HPM_P1;HPM_P2
2022/05/04 00:00:11;;;;;;;13.63;7.25;;;16.00;70.10;;;;;;4996538;28;20041;-63
2022/05/04 00:02:37;;;;;;;10.75;7.53;;;16.00;70.10;;;;;;4996136;28;20391;-64
2022/05/04 00:05:04;;;;;;;12.07;7.05;;;16.00;70.10;;;;;;5003386;28;20123;-65
2022/05/04 00:07:30;;;;;;;10.95;7.30;;;15.90;70.00;;;;;;5006972;28;20028;-64
2022/05/04 00:09:57;;;;;;;12.80;8.07;;;15.90;70.10;;;;;;4996114;28;20034;-64
2022/05/04 00:12:23;;;;;;;11.93;7.80;;;15.90;70.30;;;;;;4994964;28;20050;-64
2022/05/04 00:14:49;;;;;;;13.35;7.70;;;15.90;70.30;;;;;;4995965;28;20022;-64
2022/05/04 00:17:14;;;;;;;14.60;8.70;;;15.90;70.30;;;;;;4994753;28;20034;-65
2022/05/04 00:19:40;;;;;;;12.85;8.27;;;15.80;70.30;;;;;;4996028;28;20105;-65
2022/05/04 00:22:05;;;;;;;13.50;8.18;;;15.80;70.40;;;;;;4995861;28;20486;-65
2022/05/04 00:24:31;;;;;;;14.85;8.38;;;15.80;70.50;;;;;;4995713;28;20532;-65
2022/05/04 00:26:56;;;;;;;16.02;8.70;;;15.80;70.50;;;;;;4995567;28;20484;-64
2022/05/04 00:29:22;;;;;;;13.20;8.48;;;15.80;70.50;;;;;;4996236;28;20483;-65
2022/05/04 00:31:47;;;;;;;13.82;8.23;;;15.80;70.50;;;;;;4996057;28;20456;-66
2022/05/04 00:34:13;;;;;;;14.90;8.48;;;15.70;70.60;;;;;;4995700;28;20480;-66
2022/05/04 00:36:38;;;;;;;16.77;8.57;;;15.70;70.70;;;;;;4995446;28;20380;-60
2022/05/04 00:39:04;;;;;;;16.67;9.27;;;15.70;70.80;;;;;;4995796;28;20543;-65
2022/05/04 00:41:29;;;;;;;12.88;8.50;;;15.60;70.90;;;;;;4995800;28;20523;-65
2022/05/04 00:43:55;;;;;;;12.60;8.98;;;15.60;70.90;;;;;;4995656;28;20432;-65
2022/05/04 00:46:22;;;;;;;14.05;8.88;;;15.60;71.00;;;;;;4995730;28;20487;-60
2022/05/04 00:48:48;;;;;;;15.00;9.05;;;15.60;71.00;;;;;;4995520;28;20034;-65
2022/05/04 00:51:13;;;;;;;15.90;8.75;;;15.60;71.20;;;;;;4995379;28;20033;-65
2022/05/04 00:53:43;;;;;;;14.20;8.68;;;15.60;71.20;;;;;;4995332;28;20472;-65
2022/05/04 00:56:09;;;;;;;15.13;8.85;;;15.60;71.20;;;;;;4995781;28;20041;-65
2022/05/04 00:58:55;;;;;;;16.65;10.35;;;15.60;71.20;;;;;;4995218;28;20085;-65
2022/05/04 01:01:26;;;;;;;17.75;9.65;;;15.60;71.40;;;;;;4995420;28;20026;-65
2022/05/04 01:03:55;;;;;;;13.32;8.98;;;15.60;71.40;;;;;;4995142;28;20396;-65
2022/05/04 01:06:21;;;;;;;12.45;9.52;;;15.50;71.40;;;;;;4994872;28;20105;-65
2022/05/04 01:08:48;;;;;;;12.38;9.57;;;15.50;71.60;;;;;;4995059;28;20026;-64
2022/05/04 01:11:15;;;;;;;14.30;10.02;;;15.50;71.70;;;;;;4995199;28;20023;-65
2022/05/04 01:13:40;;;;;;;16.52;10.20;;;15.50;71.80;;;;;;4995173;28;20046;-65
2022/05/04 01:16:06;;;;;;;17.27;10.98;;;15.50;71.90;;;;;;4994999;28;20076;-64
2022/05/04 01:18:31;;;;;;;18.55;11.15;;;15.50;71.90;;;;;;4994919;28;20046;-65
2022/05/04 01:20:57;;;;;;;15.95;10.98;;;15.40;72.00;;;;;;4994656;28;20376;-65
2022/05/04 01:23:25;;;;;;;13.77;10.65;;;15.40;72.30;;;;;;4995059;28;20030;-64
2022/05/04 01:25:53;;;;;;;19.92;10.85;;;15.40;72.40;;;;;;4994550;28;20034;-64
2022/05/04 01:28:19;;;;;;;20.02;11.35;;;15.40;72.60;;;;;;4994639;28;20026;-64
2022/05/04 01:30:44;;;;;;;18.92;11.05;;;15.40;72.60;;;;;;4995014;28;20019;-65
2022/05/04 01:33:10;;;;;;;16.45;10.60;;;15.40;72.60;;;;;;4994920;28;20522;-65
2022/05/04 01:35:36;;;;;;;16.98;11.73;;;15.40;72.70;;;;;;4994330;28;20034;-64
2022/05/04 01:38:01;;;;;;;17.17;11.57;;;15.40;72.70;;;;;;4994455;28;20030;-62
2022/05/04 01:40:27;;;;;;;16.08;11.27;;;15.30;72.90;;;;;;4994461;28;20018;-65
2022/05/04 01:42:52;;;;;;;17.00;11.88;;;15.40;72.90;;;;;;4994602;28;20372;-65
2022/05/04 01:45:18;;;;;;;18.05;11.38;;;15.40;73.00;;;;;;4994681;28;20054;-65
2022/05/04 01:47:50;;;;;;;14.38;10.85;;;15.30;73.00;;;;;;4994651;28;20514;-61
2022/05/04 01:50:17;;;;;;;19.70;11.52;;;15.30;73.30;;;;;;4994360;28;20377;-62
2022/05/04 01:52:42;;;;;;;18.60;11.82;;;15.20;73.30;;;;;;4994516;28;20022;-64
2022/05/04 01:55:08;;;;;;;17.98;11.15;;;15.30;73.40;;;;;;4994413;28;20027;-64
2022/05/04 01:57:34;;;;;;;16.00;11.75;;;15.30;73.50;;;;;;4994156;28;20031;-64
2022/05/04 02:00:00;;;;;;;19.23;12.27;;;15.30;73.60;;;;;;4994075;28;20014;-64
2022/05/04 02:02:26;;;;;;;14.73;10.82;;;15.30;73.70;;;;;;4994186;28;20058;-63
2022/05/04 02:04:53;;;;;;;20.05;12.40;;;15.20;73.80;;;;;;4994267;28;20081;-64
2022/05/04 02:07:18;;;;;;;17.30;10.60;;;15.20;73.80;;;;;;4993959;28;20027;-64
2022/05/04 02:09:46;;;;;;;17.85;11.40;;;15.20;73.90;;;;;;4994386;28;20097;-64
2022/05/04 02:12:11;;;;;;;21.40;11.15;;;15.20;74.00;;;;;;4992634;28;20022;-63
2022/05/04 02:14:37;;;;;;;16.88;11.40;;;15.10;74.10;;;;;;4994242;28;20365;-64
2022/05/04 02:17:03;;;;;;;17.70;11.48;;;15.10;74.10;;;;;;4992969;28;20472;-60
2022/05/04 02:19:28;;;;;;;18.48;11.20;;;15.10;74.20;;;;;;4994072;28;20431;-65
2022/05/04 02:21:54;;;;;;;17.75;10.70;;;15.10;74.30;;;;;;4993854;28;20592;-65
2022/05/04 02:24:19;;;;;;;15.63;10.43;;;15.10;74.40;;;;;;4994005;28;20042;-64
2022/05/04 02:26:45;;;;;;;21.13;11.00;;;15.00;74.50;;;;;;4993614;28;20040;-64
2022/05/04 02:29:10;;;;;;;14.73;10.88;;;15.00;74.40;;;;;;4993899;28;20022;-65
2022/05/04 02:31:36;;;;;;;17.48;11.07;;;15.00;74.60;;;;;;4993570;28;20105;-64
2022/05/04 02:34:01;;;;;;;19.83;11.75;;;15.00;74.70;;;;;;4993761;28;20034;-64
2022/05/04 02:39:22;;;;;;;16.92;10.55;;;14.90;74.70;;;;;;5008993;28;20084;-64
2022/05/04 02:41:48;;;;;;;14.52;10.23;;;15.00;74.60;;;;;;4993707;28;20034;-64
2022/05/04 02:44:14;;;;;;;16.10;10.25;;;15.00;74.70;;;;;;4993739;28;20559;-64
2022/05/04 02:46:40;;;;;;;19.00;10.98;;;15.00;74.60;;;;;;4993258;28;20036;-64
2022/05/04 02:49:05;;;;;;;17.67;11.30;;;15.00;74.60;;;;;;4993716;28;20105;-64
2022/05/04 02:51:31;;;;;;;18.48;10.70;;;14.90;74.70;;;;;;4993609;28;20030;-64
2022/05/04 02:53:57;;;;;;;15.35;10.75;;;15.00;74.70;;;;;;4993566;28;20030;-63
2022/05/04 02:56:22;;;;;;;17.58;11.35;;;14.90;74.80;;;;;;4993356;28;20026;-63
2022/05/04 02:58:51;;;;;;;16.58;11.18;;;14.90;74.80;;;;;;4994048;28;20039;-64
2022/05/04 03:04:06;;;;;;;16.85;10.80;;;14.80;74.80;;;;;;4993769;28;20080;-63
2022/05/04 03:06:33;;;;;;;16.17;10.07;;;14.80;74.80;;;;;;4993458;28;20109;-65
2022/05/04 03:08:59;;;;;;;17.50;9.68;;;14.80;74.90;;;;;;4993578;28;20026;-64
2022/05/04 03:14:08;;;;;;;18.30;10.60;;;14.80;75.00;;;;;;4993580;28;20041;-63
2022/05/04 03:16:35;;;;;;;18.30;11.63;;;14.80;75.00;;;;;;4993121;28;20018;-64
2022/05/04 03:19:04;;;;;;;16.42;10.32;;;14.80;75.00;;;;;;4993278;28;20038;-64
2022/05/04 03:21:30;;;;;;;26.80;11.75;;;14.70;75.00;;;;;;4993681;28;20033;-63
2022/05/04 03:23:55;;;;;;;18.35;10.68;;;14.80;75.10;;;;;;4993275;28;20117;-63
2022/05/04 03:26:21;;;;;;;16.35;10.77;;;14.70;74.60;;;;;;4993228;28;20484;-63
2022/05/04 03:28:46;;;;;;;16.77;10.30;;;14.70;74.60;;;;;;5002075;28;20041;-63
2022/05/04 03:31:12;;;;;;;14.95;10.43;;;14.70;74.50;;;;;;5016143;28;20083;-63
2022/05/04 03:33:38;;;;;;;18.70;10.88;;;14.70;74.40;;;;;;5015940;28;20033;-63
2022/05/04 03:36:04;;;;;;;16.17;10.70;;;14.60;74.50;;;;;;5016375;28;20026;-63
2022/05/04 03:38:29;;;;;;;16.65;10.40;;;14.60;74.40;;;;;;5016453;28;20116;-63
2022/05/04 03:40:55;;;;;;;16.70;11.15;;;14.60;74.70;;;;;;5016230;28;20022;-63
2022/05/04 03:43:20;;;;;;;15.00;10.38;;;14.60;74.80;;;;;;5016344;28;20085;-63
2022/05/04 03:45:46;;;;;;;16.40;10.48;;;14.50;74.80;;;;;;5016278;28;20049;-62
2022/05/04 03:48:11;;;;;;;15.63;10.35;;;14.50;74.80;;;;;;5016010;28;20041;-63
2022/05/04 03:50:37;;;;;;;14.70;10.70;;;14.50;74.90;;;;;;5016369;28;20030;-62
2022/05/04 03:53:02;;;;;;;14.30;9.82;;;14.50;74.90;;;;;;5016096;28;20046;-63
2022/05/04 03:55:28;;;;;;;16.88;9.90;;;14.50;75.10;;;;;;5016088;28;20101;-61
2022/05/04 03:57:53;;;;;;;15.45;10.68;;;14.50;75.20;;;;;;5015950;28;20049;-63
2022/05/04 04:00:19;;;;;;;16.92;10.27;;;14.40;75.20;;;;;;5015888;28;20018;-64
2022/05/04 04:02:45;;;;;;;14.73;10.75;;;14.40;75.30;;;;;;5015933;28;20034;-62
2022/05/04 04:05:10;;;;;;;19.20;10.43;;;14.40;75.40;;;;;;5015908;28;20080;-63
2022/05/04 04:07:36;;;;;;;15.93;10.35;;;14.40;75.30;;;;;;5015946;28;20029;-63
2022/05/04 04:10:02;;;;;;;17.63;10.63;;;14.40;75.40;;;;;;5015974;28;20046;-63
2022/05/04 04:12:28;;;;;;;18.17;11.18;;;14.40;75.40;;;;;;5015884;28;20075;-64
2022/05/04 04:14:53;;;;;;;16.00;10.23;;;14.40;75.40;;;;;;5015595;28;20025;-63
2022/05/04 04:17:19;;;;;;;15.13;10.48;;;14.30;75.30;;;;;;5015771;28;20172;-63
2022/05/04 04:19:44;;;;;;;18.60;10.70;;;14.30;75.30;;;;;;5015696;28;20038;-63
2022/05/04 04:22:10;;;;;;;18.88;11.07;;;14.30;75.40;;;;;;5015631;28;20026;-64
2022/05/04 04:24:36;;;;;;;16.40;10.35;;;14.30;75.30;;;;;;5015616;28;20033;-63
2022/05/04 04:27:01;;;;;;;16.48;10.70;;;14.30;75.20;;;;;;5015255;28;20041;-63
2022/05/04 04:29:28;;;;;;;18.13;10.60;;;14.20;75.30;;;;;;5015277;28;20060;-62
2022/05/04 04:31:53;;;;;;;15.38;10.25;;;14.20;75.40;;;;;;5015431;28;20106;-63
2022/05/04 04:34:19;;;;;;;15.48;10.82;;;14.20;75.50;;;;;;5015427;28;20101;-63
2022/05/04 04:36:44;;;;;;;15.25;9.57;;;14.20;75.80;;;;;;5015431;28;20038;-64
2022/05/04 04:39:10;;;;;;;23.13;11.90;;;14.20;76.00;;;;;;5014678;28;20026;-62
2022/05/04 04:41:36;;;;;;;20.77;10.82;;;14.20;76.10;;;;;;5015442;28;20034;-63
2022/05/04 04:44:01;;;;;;;17.55;10.48;;;14.10;76.10;;;;;;5014837;28;20033;-60
2022/05/04 04:46:27;;;;;;;18.08;11.00;;;14.20;76.20;;;;;;5015113;28;20053;-61
2022/05/04 04:48:53;;;;;;;13.55;9.90;;;14.10;76.00;;;;;;5014989;28;20104;-64
2022/05/04 04:51:18;;;;;;;22.73;12.27;;;14.10;76.00;;;;;;5015050;28;20046;-63
2022/05/04 04:53:44;;;;;;;19.15;11.85;;;14.10;75.90;;;;;;5015025;28;20391;-63
2022/05/04 04:56:09;;;;;;;21.13;14.40;;;14.10;76.10;;;;;;5014843;28;20026;-63
2022/05/04 04:58:35;;;;;;;18.65;13.15;;;14.10;75.70;;;;;;5014921;28;20034;-63
2022/05/04 05:01:01;;;;;;;17.25;13.90;;;14.10;75.60;;;;;;5011713;28;20384;-63
2022/05/04 05:03:27;;;;;;;18.65;12.55;;;14.10;75.40;;;;;;5014553;28;20076;-63
2022/05/04 05:05:53;;;;;;;17.90;11.95;;;14.10;75.40;;;;;;5014011;28;20018;-63
2022/05/04 05:08:18;;;;;;;18.08;13.05;;;14.10;75.50;;;;;;5013966;28;20420;-63
2022/05/04 05:10:44;;;;;;;16.38;12.52;;;14.10;75.40;;;;;;5014608;28;20030;-63
2022/05/04 05:13:09;;;;;;;15.00;11.82;;;14.10;75.60;;;;;;5014879;28;20026;-64
2022/05/04 05:18:21;;;;;;;14.90;11.10;;;14.00;75.80;;;;;;5016907;28;20056;-62
2022/05/04 05:20:47;;;;;;;17.77;12.57;;;14.00;76.10;;;;;;5034241;28;20022;-63
2022/05/04 05:23:13;;;;;;;15.00;11.65;;;14.10;76.30;;;;;;5021156;28;20026;-63
2022/05/04 05:25:39;;;;;;;19.45;12.57;;;14.00;76.50;;;;;;5014182;28;20030;-63
2022/05/04 05:28:05;;;;;;;20.90;11.88;;;14.00;76.70;;;;;;5014234;28;20034;-63
2022/05/04 05:30:31;;;;;;;16.20;12.50;;;14.00;77.10;;;;;;5013647;28;20022;-62
2022/05/04 05:32:56;;;;;;;19.83;10.93;;;14.00;76.90;;;;;;5013238;28;20113;-62
2022/05/04 05:35:22;;;;;;;17.48;11.43;;;14.10;77.10;;;;;;5012991;28;20057;-60
2022/05/04 05:37:48;;;;;;;17.85;11.02;;;14.00;77.10;;;;;;5014154;28;20083;-63
2022/05/04 05:40:13;;;;;;;16.30;11.00;;;14.00;77.30;;;;;;5013890;28;20030;-60
2022/05/04 05:42:39;;;;;;;18.38;11.60;;;14.00;77.20;;;;;;5012972;28;20022;-65
2022/05/04 05:45:06;;;;;;;19.90;10.25;;;14.10;77.50;;;;;;5012348;28;20054;-62
2022/05/04 05:47:32;;;;;;;21.98;10.80;;;14.10;78.30;;;;;;5012876;28;20467;-64
2022/05/04 05:49:58;;;;;;;18.98;10.23;;;14.10;78.10;;;;;;5012291;28;20040;-63
2022/05/04 05:52:24;;;;;;;16.15;10.23;;;14.10;78.00;;;;;;5006542;28;20022;-64
2022/05/04 05:54:51;;;;;;;14.40;8.95;;;14.20;78.00;;;;;;5011993;28;20077;-63
2022/05/04 05:57:16;;;;;;;15.32;9.20;;;14.20;78.10;;;;;;5012540;28;20033;-64
2022/05/04 05:59:42;;;;;;;15.95;9.40;;;14.20;78.40;;;;;;5012794;28;20038;-63
2022/05/04 06:02:07;;;;;;;17.52;9.23;;;14.20;78.20;;;;;;5013604;28;20022;-63
2022/05/04 06:04:33;;;;;;;20.17;10.23;;;14.30;78.30;;;;;;5013167;28;20026;-61
2022/05/04 06:06:59;;;;;;;17.48;10.20;;;14.30;79.00;;;;;;5004537;28;20394;-63
2022/05/04 06:09:24;;;;;;;15.75;10.25;;;14.40;77.70;;;;;;5012480;28;20100;-60
2022/05/04 06:11:52;;;;;;;15.65;9.52;;;14.50;77.60;;;;;;5012611;28;20064;-60
2022/05/04 06:14:17;;;;;;;13.00;9.57;;;14.40;77.60;;;;;;5012224;28;20450;-64
2022/05/04 06:16:43;;;;;;;17.48;9.38;;;14.50;77.50;;;;;;5012900;28;20018;-63
2022/05/04 06:19:09;;;;;;;15.55;10.27;;;14.50;77.30;;;;;;5013268;28;20521;-63
2022/05/04 06:21:34;;;;;;;13.43;9.75;;;14.60;77.20;;;;;;5012643;28;20034;-61
2022/05/04 06:24:00;;;;;;;20.02;10.32;;;14.60;76.80;;;;;;5006386;28;20030;-60
2022/05/04 06:26:25;;;;;;;13.45;9.15;;;14.70;76.30;;;;;;5012637;28;20030;-60
2022/05/04 06:28:51;;;;;;;20.80;9.43;;;14.70;76.20;;;;;;5003009;28;20049;-62
2022/05/04 06:34:06;;;;;;;18.67;10.45;;;14.80;75.50;;;;;;5014015;28;20520;-64
2022/05/04 06:36:35;;;;;;;18.40;9.80;;;14.80;75.30;;;;;;5009549;28;20491;-61
2022/05/04 06:39:01;;;;;;;16.75;7.78;;;14.90;74.90;;;;;;4992122;28;20373;-64
2022/05/04 06:41:27;;;;;;;14.07;9.05;;;14.90;74.60;;;;;;4993568;28;20034;-64
2022/05/04 06:43:52;;;;;;;16.40;8.85;;;15.00;74.10;;;;;;5008828;28;20479;-63
2022/05/04 06:46:18;;;;;;;12.05;8.57;;;15.00;74.30;;;;;;4993383;28;20041;-61
2022/05/04 06:48:45;;;;;;;18.08;8.75;;;15.00;74.50;;;;;;4993460;28;20018;-63
2022/05/04 06:51:11;;;;;;;13.52;8.30;;;15.10;74.40;;;;;;4997511;28;20413;-64
2022/05/04 06:53:37;;;;;;;15.60;8.93;;;15.10;74.20;;;;;;5012035;28;20480;-63
2022/05/04 06:56:03;;;;;;;13.25;8.13;;;15.20;73.40;;;;;;5012901;28;20034;-63
2022/05/04 06:58:28;;;;;;;15.45;9.20;;;15.30;72.90;;;;;;4993205;28;20495;-64
2022/05/04 07:00:54;;;;;;;15.35;8.63;;;15.30;72.70;;;;;;4993736;28;20476;-63
2022/05/04 07:03:22;;;;;;;18.55;9.60;;;15.30;72.10;;;;;;4995687;28;20432;-63
2022/05/04 07:05:48;;;;;;;15.50;8.63;;;15.30;71.90;;;;;;5012039;28;20057;-60
2022/05/04 07:08:14;;;;;;;15.73;8.25;;;15.40;71.90;;;;;;5015158;28;20045;-63
2022/05/04 07:10:40;;;;;;;15.93;8.50;;;15.50;71.70;;;;;;5036450;28;20025;-63
2022/05/04 07:13:06;;;;;;;19.73;8.73;;;15.50;71.50;;;;;;5030048;28;20072;-63
2022/05/04 07:15:32;;;;;;;18.88;8.93;;;15.50;71.70;;;;;;5016723;28;20387;-63
2022/05/04 07:17:58;;;;;;;16.58;8.27;;;15.60;71.00;;;;;;5015439;28;20502;-63
2022/05/04 07:20:24;;;;;;;15.63;7.85;;;15.70;70.70;;;;;;5015629;28;20030;-63
2022/05/04 07:22:50;;;;;;;13.15;8.35;;;15.70;70.30;;;;;;5016306;28;20411;-63
2022/05/04 07:25:15;;;;;;;16.40;7.57;;;15.70;70.50;;;;;;5015544;28;20076;-64
2022/05/04 07:27:41;;;;;;;17.67;7.50;;;15.80;69.70;;;;;;5016077;28;20061;-64
2022/05/04 07:30:07;;;;;;;15.15;8.07;;;15.90;69.30;;;;;;5015480;28;20058;-63
2022/05/04 07:32:33;;;;;;;14.15;7.97;;;15.90;70.00;;;;;;5006934;28;20057;-63
2022/05/04 07:34:59;;;;;;;13.30;7.75;;;15.90;69.20;;;;;;5017062;28;20510;-61
2022/05/04 07:37:25;;;;;;;13.13;8.07;;;16.00;68.50;;;;;;5013169;28;20058;-61
2022/05/04 07:42:35;;;;;;;17.08;7.78;;;16.10;69.70;;;;;;5007833;28;20192;-63
2022/05/04 07:45:06;;;;;;;9.15;5.40;;;16.10;68.70;;;;;;4996742;28;20520;-63
2022/05/04 07:47:35;;;;;;;25.30;8.82;;;16.10;69.30;;;;;;5002930;28;20054;-63
2022/05/04 07:50:03;;;;;;;14.75;8.95;;;16.20;68.30;;;;;;5015140;28;20033;-59
2022/05/04 07:52:29;;;;;;;16.85;9.35;;;16.20;68.30;;;;;;5016304;28;20105;-63
2022/05/04 07:54:55;;;;;;;17.67;9.07;;;16.30;68.00;;;;;;4996960;28;20552;-60
2022/05/04 07:57:21;;;;;;;12.00;8.55;;;16.40;68.10;;;;;;5005293;28;20049;-63
2022/05/04 08:04:16;;;;;;;14.90;9.50;;;16.40;67.40;;;;;;5015712;28;20538;-61
2022/05/04 08:05:18;;;;;;;20.23;11.02;;;16.50;66.90;;;;;;5016014;28;20440;-61
2022/05/04 08:07:43;;;;;;;16.55;9.60;;;16.60;67.80;;;;;;5015454;28;20109;-62
2022/05/04 08:10:09;;;;;;;12.45;6.43;;;16.50;67.90;;;;;;5015363;28;20105;-63
2022/05/04 08:12:35;;;;;;;12.35;5.20;;;16.50;68.70;;;;;;5011944;28;20025;-63
2022/05/04 08:15:01;;;;;;;11.55;5.85;;;16.50;68.90;;;;;;5010713;28;20080;-64
2022/05/04 08:17:26;;;;;;;12.55;7.22;;;16.60;69.10;;;;;;5008307;28;20038;-63
2022/05/04 08:19:52;;;;;;;16.55;9.07;;;16.60;69.10;;;;;;5009821;28;20038;-64
2022/05/04 08:22:18;;;;;;;12.80;7.40;;;16.60;68.90;;;;;;5012244;28;20110;-63
2022/05/04 08:24:43;;;;;;;11.07;7.68;;;16.70;68.50;;;;;;5013588;28;20022;-63
2022/05/04 08:27:09;;;;;;;16.10;9.85;;;16.70;68.40;;;;;;5008342;28;20026;-62
2022/05/04 08:29:35;;;;;;;20.48;7.55;;;16.80;67.80;;;;;;5013011;28;20025;-63
2022/05/04 08:32:00;;;;;;;14.25;9.88;;;16.80;68.50;;;;;;5010296;28;20033;-62
2022/05/04 08:34:26;;;;;;;19.10;10.68;;;16.90;67.90;;;;;;5014809;28;20030;-63
2022/05/04 08:36:52;;;;;;;16.33;9.65;;;16.90;66.60;;;;;;5010033;28;20030;-62
2022/05/04 08:39:17;;;;;;;11.75;7.63;;;17.00;66.90;;;;;;4997665;28;20041;-63
2022/05/04 08:41:43;;;;;;;16.60;10.07;;;17.00;67.20;;;;;;5002250;28;20064;-62
2022/05/04 08:44:11;;;;;;;18.67;9.95;;;17.00;67.10;;;;;;5012555;28;20030;-63
2022/05/04 08:46:48;;;;;;;16.40;10.13;;;17.10;66.40;;;;;;5008843;28;20026;-63
2022/05/04 08:49:16;;;;;;;14.57;8.38;;;17.20;65.70;;;;;;5014559;28;20041;-63
2022/05/04 08:51:42;;;;;;;11.77;8.45;;;17.20;66.10;;;;;;5011609;28;20543;-63
2022/05/04 08:54:08;;;;;;;13.90;9.20;;;17.20;66.60;;;;;;5014396;28;20104;-59
2022/05/04 08:56:35;;;;;;;12.48;8.25;;;17.20;66.20;;;;;;5009439;28;20023;-63
2022/05/04 08:59:05;;;;;;;16.70;10.52;;;17.20;66.40;;;;;;5006320;28;20131;-64
2022/05/04 09:01:37;;;;;;;11.13;8.25;;;17.30;65.80;;;;;;4998928;28;20018;-63
2022/05/04 09:04:03;;;;;;;16.20;9.65;;;17.30;66.30;;;;;;4995320;28;20038;-63
2022/05/04 09:06:31;;;;;;;17.25;10.75;;;17.30;66.30;;;;;;5010105;28;20081;-63
2022/05/04 09:09:10;;;;;;;20.05;10.43;;;17.40;66.30;;;;;;5009731;28;20101;-63
2022/05/04 09:11:37;;;;;;;15.40;8.85;;;17.40;65.40;;;;;;5015527;28;20021;-63
2022/05/04 09:14:15;;;;;;;15.13;9.52;;;17.40;66.10;;;;;;5013549;28;20108;-64
2022/05/04 09:16:40;;;;;;;15.68;10.52;;;17.40;66.10;;;;;;5004854;28;20113;-63
2022/05/04 09:19:06;;;;;;;15.80;9.00;;;17.50;66.10;;;;;;4999825;28;20109;-63
2022/05/04 09:21:32;;;;;;;16.88;9.90;;;17.50;66.30;;;;;;5013541;28;20072;-63
2022/05/04 09:23:58;;;;;;;13.77;6.82;;;17.50;65.60;;;;;;4997001;28;20030;-63
2022/05/04 09:26:24;;;;;;;10.85;6.80;;;17.50;67.00;;;;;;4997444;28;20479;-62
2022/05/04 09:28:51;;;;;;;11.98;7.63;;;17.60;66.80;;;;;;5012230;28;20490;-63
2022/05/04 09:31:20;;;;;;;14.82;9.57;;;17.50;66.70;;;;;;5009910;28;20043;-63
2022/05/04 09:33:56;;;;;;;14.18;10.52;;;17.60;66.30;;;;;;5009037;28;20434;-62
2022/05/04 09:45:15;;;;;;;10.02;7.35;;;17.80;65.80;;;;;;4996599;28;20494;-65
2022/05/04 09:47:45;;;;;;;12.15;7.22;;;17.90;66.00;;;;;;4993663;28;20022;-61
2022/05/04 09:50:11;;;;;;;8.80;5.32;;;17.90;66.30;;;;;;4993648;28;20026;-66
2022/05/04 09:52:50;;;;;;;21.83;7.85;;;17.90;66.40;;;;;;5008355;28;20022;-65
2022/05/04 09:55:24;;;;;;;9.13;6.20;;;17.90;65.50;;;;;;5015542;28;20389;-61
2022/05/04 09:57:52;;;;;;;10.43;6.88;;;18.00;66.00;;;;;;5010315;28;20383;-60
2022/05/04 10:00:20;;;;;;;10.65;6.25;;;18.00;66.20;;;;;;5004747;28;20407;-63
2022/05/04 10:02:48;;;;;;;12.20;7.88;;;18.00;66.20;;;;;;5005211;28;20513;-63
2022/05/04 10:05:15;;;;;;;13.68;8.00;;;18.00;65.80;;;;;;5011863;28;20018;-64
2022/05/04 10:07:43;;;;;;;13.15;6.25;;;18.10;66.10;;;;;;5011763;28;20026;-64
2022/05/04 10:10:11;;;;;;;13.27;7.55;;;18.10;66.30;;;;;;5011439;28;20026;-65
2022/05/04 10:12:42;;;;;;;11.45;7.03;;;18.10;65.70;;;;;;4998072;28;20506;-60
2022/05/04 10:15:12;;;;;;;12.23;7.20;;;18.10;66.00;;;;;;5000379;28;20116;-61
2022/05/04 10:17:44;;;;;;;12.55;7.78;;;18.10;65.90;;;;;;5001815;28;20130;-66
2022/05/04 10:20:21;;;;;;;9.32;6.20;;;18.10;65.30;;;;;;5009738;28;20045;-67
2022/05/04 10:23:01;;;;;;;14.98;8.75;;;18.20;65.80;;;;;;5010450;28;20030;-64
2022/05/04 10:25:30;;;;;;;15.90;6.03;;;18.20;65.20;;;;;;5000371;28;20028;-64
2022/05/04 10:28:07;;;;;;;10.50;7.25;;;18.20;65.80;;;;;;5008599;28;20038;-66
2022/05/04 10:30:34;;;;;;;11.60;5.03;;;18.20;65.80;;;;;;5003689;28;20030;-66
2022/05/04 10:33:08;;;;;;;16.63;6.93;;;18.30;66.00;;;;;;4999110;28;20042;-65
2022/05/04 10:35:44;;;;;;;10.43;5.95;;;18.30;65.80;;;;;;5003336;28;20058;-66
2022/05/04 10:38:29;;;;;;;8.85;5.65;;;18.30;65.80;;;;;;5006170;28;20046;-66
2022/05/04 10:41:02;;;;;;;10.77;6.57;;;18.30;65.60;;;;;;5012121;28;20483;-67
2022/05/04 10:43:45;;;;;;;10.85;6.28;;;18.30;65.30;;;;;;5001456;28;20034;-63
2022/05/04 10:46:12;;;;;;;;;;;18.30;65.30;;;;;;5012239;28;20032;-66
2022/05/04 10:48:44;;;;;;;13.48;7.82;;;18.30;66.00;;;;;;5017477;28;19914;-66
2022/05/04 10:51:11;;;;;;;15.55;10.18;;;18.30;64.90;;;;;;5012192;28;20501;-66
2022/05/04 10:53:39;;;;;;;13.32;9.18;;;18.30;64.00;;;;;;5007046;28;20145;-66
2022/05/04 10:56:13;;;;;;;14.00;9.70;;;18.30;63.70;;;;;;5012848;28;20471;-65
2022/05/04 10:58:49;;;;;;;15.02;9.10;;;18.30;63.70;;;;;;4998895;28;20046;-66
2022/05/04 11:01:17;;;;;;;12.70;8.75;;;18.30;63.60;;;;;;5008330;28;20026;-65
2022/05/04 11:04:02;;;;;;;12.43;8.27;;;18.30;63.10;;;;;;5006557;28;20172;-66
2022/05/04 11:06:30;;;;;;;12.65;8.73;;;18.40;63.20;;;;;;5006181;28;20172;-64
2022/05/04 11:08:58;;;;;;;12.02;8.90;;;18.40;63.50;;;;;;5008986;28;20045;-63
2022/05/04 11:11:25;;;;;;;13.57;9.27;;;18.40;63.30;;;;;;5008509;28;21300;-63
2022/05/04 11:13:51;;;;;;;13.18;9.93;;;18.40;62.80;;;;;;5007358;28;20031;-63
2022/05/04 11:16:17;;;;;;;11.48;9.60;;;18.40;62.30;;;;;;5007272;28;20439;-65
2022/05/04 11:18:42;;;;;;;13.40;7.05;;;18.40;62.70;;;;;;5005013;28;20386;-61
2022/05/04 11:21:13;;;;;;;10.85;5.40;;;18.40;64.30;;;;;;5009902;28;20030;-67
2022/05/04 11:23:44;;;;;;;9.13;6.00;;;18.40;65.20;;;;;;5017464;28;20034;-66
2022/05/04 11:26:36;;;;;;;10.80;6.97;;;18.40;64.90;;;;;;5018884;28;20049;-66
2022/05/04 11:29:10;;;;;;;7.73;4.40;;;18.40;63.40;;;;;;5006819;28;20293;-68
2022/05/04 11:31:36;;;;;;;9.57;3.90;;;18.50;66.80;;;;;;5001756;28;20041;-66
2022/05/04 11:34:03;;;;;;;9.50;5.93;;;18.60;67.10;;;;;;5010955;28;20462;-66
2022/05/04 11:36:28;;;;;;;13.68;6.25;;;18.60;66.00;;;;;;4994371;28;20030;-64
2022/05/04 11:38:54;;;;;;;9.40;5.40;;;18.60;64.40;;;;;;5000711;28;20049;-66
2022/05/04 11:41:20;;;;;;;9.15;6.05;;;18.60;65.00;;;;;;5004464;28;20104;-66
2022/05/04 11:43:49;;;;;;;7.28;4.93;;;18.60;63.70;;;;;;4997342;28;20022;-65
2022/05/04 11:46:16;;;;;;;9.88;5.25;;;18.60;64.70;;;;;;5009415;28;20018;-67
2022/05/04 11:48:44;;;;;;;8.48;5.50;;;18.60;64.00;;;;;;5009658;28;20109;-68
2022/05/04 11:51:11;;;;;;;5.97;4.55;;;18.60;63.40;;;;;;5012911;28;20101;-67
2022/05/04 11:53:37;;;;;;;6.35;5.07;;;18.60;62.80;;;;;;5012098;28;20030;-64
2022/05/04 11:56:05;;;;;;;10.68;5.25;;;18.60;62.70;;;;;;5010350;28;20116;-63
2022/05/04 11:58:33;;;;;;;9.73;5.18;;;18.60;62.00;;;;;;5010534;28;20120;-68
2022/05/04 12:00:59;;;;;;;7.72;6.22;;;18.70;62.20;;;;;;5010384;28;20384;-64
2022/05/04 12:03:26;;;;;;;10.07;5.97;;;18.70;61.50;;;;;;5012432;28;20034;-63
2022/05/04 12:05:54;;;;;;;9.77;5.63;;;18.70;61.90;;;;;;5013174;28;20030;-62
2022/05/04 12:08:21;;;;;;;12.20;5.82;;;18.70;62.30;;;;;;5012982;28;20038;-63
2022/05/04 12:10:48;;;;;;;7.55;4.57;;;18.70;63.50;;;;;;5008636;28;20030;-67
2022/05/04 12:13:15;;;;;;;8.07;3.88;;;18.70;64.70;;;;;;5013464;28;20476;-62
2022/05/04 12:15:42;;;;;;;9.68;5.88;;;18.70;64.90;;;;;;5003943;28;20030;-65
2022/05/04 12:18:11;;;;;;;15.93;7.45;;;18.70;64.70;;;;;;5009360;28;20056;-67
2022/05/04 12:20:36;;;;;;;9.55;5.50;;;18.80;63.70;;;;;;5006028;28;20489;-66
2022/05/04 12:23:03;;;;;;;9.13;5.80;;;18.80;64.40;;;;;;5006251;28;20022;-67
2022/05/04 12:25:29;;;;;;;13.32;7.20;;;18.80;64.40;;;;;;4996398;28;20034;-66
2022/05/04 12:27:56;;;;;;;11.90;8.50;;;18.80;64.10;;;;;;5013861;28;20392;-63
2022/05/04 12:33:08;;;;;;;8.20;5.80;;;18.90;63.50;;;;;;5012529;28;20044;-61
2022/05/04 12:35:44;;;;;;;17.90;5.82;;;18.90;64.80;;;;;;5011645;28;20022;-65
2022/05/04 12:38:19;;;;;;;10.55;7.20;;;18.90;65.60;;;;;;5013036;28;20038;-65
2022/05/04 12:40:45;;;;;;;8.95;5.18;;;18.90;64.80;;;;;;5004432;28;20025;-62
2022/05/04 12:43:12;;;;;;;11.05;6.78;;;18.90;65.60;;;;;;5009258;28;20108;-65
2022/05/04 12:45:38;;;;;;;11.40;6.05;;;18.90;65.10;;;;;;5008797;28;20464;-61
2022/05/04 12:48:09;;;;;;;6.78;4.90;;;19.00;65.10;;;;;;5006182;28;20021;-63
2022/05/04 12:50:36;;;;;;;11.93;8.80;;;19.00;65.60;;;;;;5012928;28;20028;-60
2022/05/04 12:53:03;;;;;;;8.82;5.97;;;19.10;63.40;;;;;;5012266;28;20026;-62
2022/05/04 12:58:14;;;;;;;7.80;5.35;;;19.10;66.00;;;;;;5011999;28;20037;-65
2022/05/04 13:00:40;;;;;;;9.40;6.45;;;19.10;65.30;;;;;;5005273;28;20026;-63
2022/05/04 13:03:09;;;;;;;8.20;3.88;;;19.10;65.10;;;;;;5013028;28;20018;-63
2022/05/04 13:05:35;;;;;;;5.82;4.57;;;19.10;66.20;;;;;;5006661;28;20131;-60